Time;durP1;ratioP1;P1;durP2;ratioP2;P2;SDS_P1;SDS_P2;PMS_P1;PMS_P2;Temp;Humidity;BMP_temperature;BMP_pressure;BME280_temperature;BME280_humidity;BME280_pressure;Samples;Min_cycle;Max_cycle;Signal;HPM_P1;HPM_P2
2022/03/29 00:00:13;;;;;;;;;36.67;31.67;;;;;17.41;34.50;100865.97;5019873;28;45485;-69
2022/03/29 00:02:40;;;;;;;;;27.00;21.33;;;;;17.67;34.63;100906.66;5019932;28;45564;-69
2022/03/29 00:05:05;;;;;;;;;38.67;33.00;;;;;17.62;34.92;100926.06;5019629;28;45336;-68
2022/03/29 00:07:34;;;;;;;;;35.00;29.33;;;;;17.55;35.10;100892.84;5019674;28;45570;-69
2022/03/29 00:10:04;;;;;;;;;33.33;27.33;;;;;17.05;35.41;100831.78;5019489;28;45806;-70
2022/03/29 00:12:30;;;;;;;;;34.33;31.67;;;;;17.34;35.60;100887.38;5019688;28;45485;-69
2022/03/29 00:14:56;;;;;;;;;23.67;23.00;;;;;17.41;35.63;100895.53;5020009;28;45256;-69
2022/03/29 00:17:21;;;;;;;;;38.00;34.33;;;;;17.26;35.91;100882.09;5019708;28;45486;-70
2022/03/29 00:19:47;;;;;;;;;31.33;27.00;;;;;17.37;35.67;100889.69;5019423;28;45418;-70
2022/03/29 00:22:13;;;;;;;;;39.67;34.00;;;;;17.36;35.80;100871.06;5019291;28;45379;-71
2022/03/29 00:24:38;;;;;;;;;37.00;32.67;;;;;17.43;35.62;100878.22;5019583;28;45554;-69
2022/03/29 00:27:05;;;;;;;;;35.67;30.00;;;;;17.30;35.57;100860.03;5019485;28;45190;-69
2022/03/29 00:29:31;;;;;;;;;43.00;33.00;;;;;17.38;36.09;100877.09;5018867;28;46674;-69
2022/03/29 00:31:57;;;;;;;;;36.00;29.67;;;;;17.21;35.91;100845.00;5018785;28;45492;-68
2022/03/29 00:34:22;;;;;;;;;33.67;28.33;;;;;17.33;35.82;100867.72;5019020;28;45431;-68
2022/03/29 00:36:48;;;;;;;;;39.00;32.33;;;;;17.31;36.01;100866.25;5019245;28;45663;-68
2022/03/29 00:39:13;;;;;;;;;36.33;32.00;;;;;17.26;36.04;100850.69;5018707;28;46047;-69
2022/03/29 00:41:38;;;;;;;;;39.67;33.00;;;;;17.31;36.46;100859.03;5018947;28;45356;-69
2022/03/29 00:44:05;;;;;;;;;44.67;32.67;;;;;17.21;35.84;100834.25;5017526;28;45397;-68
2022/03/29 00:46:31;;;;;;;;;38.67;33.33;;;;;17.31;35.93;100837.53;5019295;28;45465;-69
2022/03/29 00:48:57;;;;;;;;;48.00;37.33;;;;;17.39;36.01;100849.19;5018844;28;45712;-68
2022/03/29 00:51:23;;;;;;;;;45.67;36.67;;;;;17.02;35.89;100779.28;5001424;28;45406;-68
2022/03/29 00:53:48;;;;;;;;;47.33;39.33;;;;;17.34;35.78;100820.19;5019420;28;45441;-69
2022/03/29 00:56:14;;;;;;;;;38.67;35.67;;;;;17.19;35.99;100812.13;5017349;28;45344;-69
2022/03/29 00:58:40;;;;;;;;;46.33;38.33;;;;;17.12;36.08;100803.16;5018795;28;47444;-67
2022/03/29 01:01:05;;;;;;;;;36.67;33.33;;;;;17.14;35.77;100803.81;5018608;28;45443;-70
2022/03/29 01:03:31;;;;;;;;;45.00;33.67;;;;;17.23;36.07;100808.06;5018820;28;45332;-69
2022/03/29 01:05:56;;;;;;;;;39.00;28.67;;;;;16.75;36.19;100717.28;5019150;28;45212;-69
2022/03/29 01:08:24;;;;;;;;;36.33;30.67;;;;;17.31;36.13;100810.66;5018494;28;45368;-71
2022/03/29 01:10:50;;;;;;;;;46.67;35.33;;;;;17.28;36.19;100800.28;5011110;28;45202;-69
2022/03/29 01:13:19;;;;;;;;;39.67;36.33;;;;;17.23;35.88;100791.97;5013701;28;45302;-68
2022/03/29 01:15:46;;;;;;;;;41.33;33.33;;;;;17.14;35.91;100786.84;5012759;28;45529;-68
2022/03/29 01:18:13;;;;;;;;;35.67;30.67;;;;;16.85;36.05;100758.97;5015561;28;45840;-70
2022/03/29 01:20:42;;;;;;;;;29.33;27.67;;;;;17.02;36.14;100800.75;5017228;28;45348;-68
2022/03/29 01:23:10;;;;;;;;;43.33;34.33;;;;;16.92;35.96;100773.31;5018225;28;45452;-68
2022/03/29 01:25:39;;;;;;;;;27.33;27.33;;;;;16.90;36.07;100790.63;5010558;28;45470;-69
2022/03/29 01:28:06;;;;;;;;;28.67;26.67;;;;;16.83;36.22;100795.09;5018183;28;45705;-69
2022/03/29 01:30:32;;;;;;;;;40.67;33.00;;;;;16.76;35.95;100759.22;5017852;28;45257;-68
2022/03/29 01:33:00;;;;;;;;;28.00;28.00;;;;;16.93;35.67;100784.91;5018376;28;45445;-69
2022/03/29 01:35:31;;;;;;;;;32.33;30.33;;;;;17.00;35.73;100788.50;5018222;28;45320;-69
2022/03/29 01:37:57;;;;;;;;;38.00;32.67;;;;;16.95;35.75;100783.69;5018145;28;45953;-68
2022/03/29 01:40:26;;;;;;;;;32.00;28.00;;;;;16.86;35.59;100762.50;5016915;28;45475;-69
2022/03/29 01:42:54;;;;;;;;;34.33;29.33;;;;;16.88;35.57;100772.03;5016978;28;45270;-69
2022/03/29 01:45:22;;;;;;;;;37.67;28.33;;;;;16.82;35.59;100771.91;5018156;28;45537;-68
2022/03/29 01:47:48;;;;;;;;;35.33;32.00;;;;;16.83;35.38;100768.25;5009855;28;47028;-69
2022/03/29 01:50:14;;;;;;;;;37.67;33.33;;;;;16.81;35.58;100757.66;5008179;28;45488;-69
2022/03/29 01:52:40;;;;;;;;;39.67;30.67;;;;;16.92;35.30;100762.59;5018005;28;45531;-68
2022/03/29 01:55:10;;;;;;;;;32.33;28.00;;;;;16.95;34.86;100750.63;5018317;28;45261;-68
2022/03/29 01:57:37;;;;;;;;;31.33;28.33;;;;;17.00;34.87;100764.34;5014107;28;47949;-69
2022/03/29 02:02:48;;;;;;;;;31.00;27.33;;;;;16.89;34.57;100746.84;5017644;28;45297;-70
2022/03/29 02:05:14;;;;;;;;;36.67;30.00;;;;;16.83;34.41;100741.38;5010390;28;45365;-68
2022/03/29 02:07:39;;;;;;;;;24.67;24.67;;;;;16.88;34.64;100738.97;5014360;28;46879;-69
2022/03/29 02:10:06;;;;;;;;;32.67;30.33;;;;;16.87;34.91;100737.31;5018061;28;45336;-69
2022/03/29 02:12:33;;;;;;;;;34.33;29.33;;;;;16.90;34.53;100736.94;5017785;28;45342;-69
2022/03/29 02:14:58;;;;;;;;;36.33;28.33;;;;;16.77;34.84;100709.88;5008551;28;45253;-70
2022/03/29 02:17:24;;;;;;;;;36.67;30.33;;;;;16.82;34.88;100721.75;5017438;28;45923;-67
2022/03/29 02:19:49;;;;;;;;;37.67;24.67;;;;;16.27;34.66;100625.53;5016198;28;45430;-68
2022/03/29 02:22:14;;;;;;;;;33.00;27.67;;;;;16.76;34.77;100709.06;5017621;28;45309;-69
2022/03/29 02:24:40;;;;;;;;;26.33;23.33;;;;;16.68;34.21;100695.72;5017983;28;45476;-68
2022/03/29 02:27:06;;;;;;;;;23.33;18.00;;;;;16.64;34.58;100691.72;5015948;28;47521;-68
2022/03/29 02:29:33;;;;;;;;;29.00;25.33;;;;;16.75;34.21;100696.66;5017216;28;45510;-69
2022/03/29 02:31:59;;;;;;;;;33.67;30.00;;;;;16.77;33.84;100689.25;5017132;28;45370;-67
2022/03/29 02:34:24;;;;;;;;;29.33;25.33;;;;;16.70;33.68;100673.06;5017585;28;45298;-68
2022/03/29 02:36:50;;;;;;;;;29.33;21.00;;;;;16.67;33.36;100672.59;5015625;28;46589;-69
2022/03/29 02:39:16;;;;;;;;;34.67;30.33;;;;;16.63;33.09;100688.22;5017050;28;45513;-67
2022/03/29 02:41:41;;;;;;;;;29.00;24.33;;;;;16.59;32.96;100686.88;5015489;28;45549;-68
2022/03/29 02:44:07;;;;;;;;;30.33;29.00;;;;;16.60;32.70;100693.09;5017304;28;45372;-69
2022/03/29 02:46:34;;;;;;;;;30.00;25.00;;;;;16.53;32.63;100654.59;5015525;28;47557;-67
2022/03/29 02:49:00;;;;;;;;;29.67;24.00;;;;;16.76;32.60;100671.47;5032106;28;46105;-69
2022/03/29 02:51:25;;;;;;;;;32.33;25.67;;;;;16.66;32.21;100649.44;5017187;28;45524;-67
2022/03/29 02:53:50;;;;;;;;;30.67;25.33;;;;;16.73;32.34;100661.94;5017222;28;45562;-68
2022/03/29 02:56:16;;;;;;;;;23.67;20.33;;;;;16.69;31.96;100663.34;5016893;28;46309;-69
2022/03/29 02:58:41;;;;;;;;;32.33;26.67;;;;;16.71;31.92;100663.16;5015768;28;45966;-69
2022/03/29 03:01:06;;;;;;;;;26.00;19.67;;;;;16.77;31.83;100661.56;5017340;28;45550;-69
2022/03/29 03:03:32;;;;;;;;;23.33;20.67;;;;;16.52;32.16;100615.38;5017156;28;45499;-69
2022/03/29 03:05:58;;;;;;;;;26.33;23.67;;;;;16.93;31.79;100666.72;5015535;28;47899;-69
2022/03/29 03:08:23;;;;;;;;;26.67;21.00;;;;;16.93;31.34;100650.63;5016812;28;45332;-69
2022/03/29 03:10:49;;;;;;;;;11.33;11.33;;;;;16.69;31.32;100609.66;5016879;28;45308;-68
2022/03/29 03:13:15;;;;;;;;;35.33;23.67;;;;;16.57;31.13;100597.66;5017213;28;45352;-69
2022/03/29 03:15:41;;;;;;;;;29.67;26.00;;;;;16.89;31.62;100647.47;5015412;28;48262;-68
2022/03/29 03:18:06;;;;;;;;;33.67;24.67;;;;;16.86;32.68;100638.97;5015725;28;45357;-69
2022/03/29 03:20:32;;;;;;;;;30.67;25.67;;;;;16.83;33.21;100644.72;5016631;28;45460;-70
2022/03/29 03:22:57;;;;;;;;;37.33;29.33;;;;;16.47;34.03;100590.94;5015278;28;45360;-70
2022/03/29 03:25:23;;;;;;;;;39.00;33.00;;;;;16.36;34.87;100576.97;5016468;28;46650;-69
2022/03/29 03:27:48;;;;;;;;;35.33;31.33;;;;;16.72;35.07;100643.34;5016494;28;45206;-68
2022/03/29 03:30:16;;;;;;;;;38.33;32.00;;;;;16.67;34.94;100635.84;5016252;28;45407;-69
2022/03/29 03:32:42;;;;;;;;;40.67;33.33;;;;;16.54;35.14;100630.25;5016702;28;45162;-68
2022/03/29 03:35:10;;;;;;;;;28.67;26.67;;;;;16.36;35.44;100627.09;5014855;28;46950;-68
2022/03/29 03:37:35;;;;;;;;;29.33;24.33;;;;;16.35;35.68;100637.00;5011797;28;45493;-69
2022/03/29 03:40:03;;;;;;;;;36.67;33.00;;;;;16.36;35.31;100635.97;5014113;28;45367;-69
2022/03/29 03:42:28;;;;;;;;;32.67;27.00;;;;;16.31;35.45;100634.88;5011909;28;45408;-69
2022/03/29 03:44:54;;;;;;;;;33.33;30.33;;;;;16.27;35.19;100626.38;5012544;28;45462;-75
2022/03/29 03:47:19;;;;;;;;;30.00;25.33;;;;;16.25;35.14;100623.03;5011879;28;46193;-68
2022/03/29 03:49:44;;;;;;;;;37.67;32.33;;;;;16.22;35.40;100620.72;5011443;28;45461;-68
2022/03/29 03:52:10;;;;;;;;;22.67;20.33;;;;;16.17;35.68;100608.88;5016291;28;45459;-69
2022/03/29 03:54:36;;;;;;;;;28.00;24.00;;;;;16.11;35.04;100611.28;5016097;28;46202;-69
2022/03/29 03:57:03;;;;;;;;;35.67;33.33;;;;;15.94;35.43;100591.00;5016158;28;45228;-68
2022/03/29 03:59:28;;;;;;;;;23.67;22.00;;;;;16.03;35.36;100602.50;5015000;28;45334;-69
2022/03/29 04:01:54;;;;;;;;;39.67;31.67;;;;;15.95;35.68;100597.19;5016122;28;45312;-70
2022/03/29 04:04:19;;;;;;;;;35.00;28.33;;;;;16.01;35.15;100591.09;5015915;28;45407;-69
2022/03/29 04:06:44;;;;;;;;;29.00;27.33;;;;;15.86;35.26;100566.97;5015070;28;45346;-69
2022/03/29 04:09:10;;;;;;;;;35.67;29.00;;;;;15.80;35.14;100567.66;5016475;28;45402;-69
2022/03/29 04:11:35;;;;;;;;;33.67;26.00;;;;;15.86;35.30;100587.56;5016428;28;45502;-68
2022/03/29 04:14:01;;;;;;;;;30.67;24.67;;;;;15.84;35.28;100598.47;5015840;28;47023;-69
2022/03/29 04:16:27;;;;;;;;;32.33;26.33;;;;;15.72;35.40;100594.56;4994918;28;45501;-69
2022/03/29 04:18:52;;;;;;;;;30.67;23.33;;;;;15.69;35.52;100581.53;5002005;28;45404;-69
2022/03/29 04:21:18;;;;;;;;;30.67;25.33;;;;;15.59;35.54;100583.59;5015489;28;45467;-69
2022/03/29 04:23:43;;;;;;;;;35.00;32.33;;;;;15.72;35.47;100600.75;5015933;28;46343;-70
2022/03/29 04:26:09;;;;;;;;;32.33;23.67;;;;;15.78;35.53;100596.50;5015573;28;45411;-69
2022/03/29 04:28:35;;;;;;;;;24.67;23.33;;;;;15.70;35.59;100585.88;5015774;28;45290;-69
2022/03/29 04:31:00;;;;;;;;;26.00;25.00;;;;;15.53;35.30;100539.59;5017018;28;45301;-69
2022/03/29 04:33:27;;;;;;;;;29.67;27.67;;;;;15.89;35.49;100606.81;5018867;28;46164;-69
2022/03/29 04:35:52;;;;;;;;;24.67;23.33;;;;;15.84;35.51;100601.16;5018873;28;45313;-69
2022/03/29 04:38:19;;;;;;;;;29.67;22.33;;;;;15.50;35.18;100546.13;5019010;28;45437;-67
2022/03/29 04:40:45;;;;;;;;;32.00;29.00;;;;;15.84;35.74;100598.47;5019623;28;45285;-68
2022/03/29 04:43:11;;;;;;;;;26.67;22.67;;;;;14.98;35.64;100457.69;5018473;28;45664;-69
2022/03/29 04:45:36;;;;;;;;;23.67;21.33;;;;;15.38;36.17;100531.50;5019133;28;45474;-69
2022/03/29 04:48:01;;;;;;;;;26.00;24.67;;;;;15.45;36.28;100569.97;5019167;28;45300;-69
2022/03/29 04:50:27;;;;;;;;;23.00;20.00;;;;;15.11;36.47;100532.06;5017653;28;45570;-69
2022/03/29 04:52:52;;;;;;;;;23.00;22.33;;;;;15.55;36.34;100580.44;5018804;28;45626;-68
2022/03/29 04:55:19;;;;;;;;;30.67;25.00;;;;;15.56;36.33;100575.91;5017606;28;45518;-66
2022/03/29 04:57:47;;;;;;;;;30.00;26.67;;;;;15.55;36.53;100574.22;5019108;28;45537;-69
2022/03/29 05:00:15;;;;;;;;;31.67;27.33;;;;;15.62;36.36;100565.34;5019253;28;45475;-71
2022/03/29 05:02:41;;;;;;;;;22.00;19.67;;;;;15.59;35.98;100556.81;5017308;28;45508;-70
2022/03/29 05:05:07;;;;;;;;;21.00;20.00;;;;;15.65;36.48;100581.06;5017879;28;45809;-69
2022/03/29 05:07:33;;;;;;;;;25.67;21.33;;;;;15.70;36.60;100583.19;5019441;28;45396;-69
2022/03/29 05:09:58;;;;;;;;;28.00;23.33;;;;;15.74;36.19;100589.84;5019465;28;45322;-71
2022/03/29 05:12:24;;;;;;;;;32.00;26.33;;;;;15.69;36.31;100578.84;5018156;28;47426;-69
2022/03/29 05:14:50;;;;;;;;;23.67;22.00;;;;;15.85;35.73;100586.75;5019277;28;45231;-69
2022/03/29 05:17:16;;;;;;;;;27.67;21.67;;;;;15.87;35.84;100594.59;5019026;28;45163;-69
2022/03/29 05:19:41;;;;;;;;;30.33;27.33;;;;;15.87;35.88;100590.06;5014787;28;45463;-69
2022/03/29 05:22:07;;;;;;;;;33.00;26.67;;;;;15.61;35.58;100557.44;5017014;28;47577;-68
2022/03/29 05:24:32;;;;;;;;;22.67;18.67;;;;;15.63;36.04;100566.16;5018012;28;45541;-70
2022/03/29 05:26:57;;;;;;;;;32.00;25.33;;;;;15.80;35.83;100586.44;5017099;28;45354;-71
2022/03/29 05:29:25;;;;;;;;;29.33;21.33;;;;;15.72;35.88;100562.38;5018517;28;45796;-74
2022/03/29 05:31:51;;;;;;;;;32.00;27.00;;;;;15.68;36.24;100569.97;5018029;28;46462;-68
2022/03/29 05:34:16;;;;;;;;;24.67;21.67;;;;;15.67;36.33;100579.03;5016634;28;45365;-77
2022/03/29 05:36:44;;;;;;;;;27.33;25.00;;;;;15.71;36.37;100568.78;5016649;28;45491;-75
2022/03/29 05:39:10;;;;;;;;;26.33;21.67;;;;;15.81;36.12;100590.78;5018618;28;45296;-70
2022/03/29 05:41:36;;;;;;;;;27.67;23.67;;;;;15.83;36.14;100578.06;5017104;28;46293;-69
2022/03/29 05:44:01;;;;;;;;;27.00;25.33;;;;;15.79;35.79;100560.63;5017204;28;45466;-67
2022/03/29 05:49:10;;;;;;;;;30.67;30.67;;;;;15.49;37.09;100565.06;5011909;28;45490;-70
2022/03/29 05:51:36;;;;;;;;;26.67;22.33;;;;;15.42;36.98;100564.97;5015737;28;46923;-68
2022/03/29 05:54:04;;;;;;;;;29.00;25.33;;;;;15.48;36.84;100566.94;5017853;28;45449;-68
2022/03/29 05:56:29;;;;;;;;;32.67;28.00;;;;;15.56;36.61;100571.38;5017281;28;45391;-69
2022/03/29 05:58:57;;;;;;;;;30.33;25.00;;;;;15.66;36.37;100561.28;5017562;28;45487;-67
2022/03/29 06:01:23;;;;;;;;;30.67;26.00;;;;;15.78;36.13;100558.97;5017382;28;46132;-65
2022/03/29 06:03:49;;;;;;;;;30.33;27.33;;;;;15.78;36.34;100558.97;5016767;28;45263;-67
2022/03/29 06:06:15;;;;;;;;;26.00;23.67;;;;;15.91;35.84;100575.28;5017762;28;45206;-65
2022/03/29 06:08:41;;;;;;;;;29.00;26.67;;;;;15.88;35.69;100580.19;5017199;28;45225;-65
2022/03/29 06:11:07;;;;;;;;;31.00;22.00;;;;;15.85;35.88;100573.34;5017518;28;46457;-71
2022/03/29 06:13:33;;;;;;;;;20.33;20.33;;;;;15.82;35.20;100565.66;5017238;28;45251;-73
2022/03/29 06:15:59;;;;;;;;;26.00;20.67;;;;;15.88;34.96;100582.84;5005057;28;45408;-69
2022/03/29 06:18:25;;;;;;;;;30.33;25.33;;;;;15.73;34.96;100556.00;5017536;28;45328;-75
2022/03/29 06:20:51;;;;;;;;;27.00;25.00;;;;;15.98;34.92;100592.28;5015664;28;47874;-76
2022/03/29 06:23:18;;;;;;;;;29.67;22.67;;;;;15.98;34.92;100584.25;5015135;28;45781;-67
2022/03/29 06:25:44;;;;;;;;;32.33;27.67;;;;;15.78;34.56;100546.41;5016858;28;45476;-70
2022/03/29 06:28:10;;;;;;;;;27.33;23.00;;;;;16.10;34.71;100593.50;5017072;28;45517;-69
2022/03/29 06:30:36;;;;;;;;;29.67;23.00;;;;;16.12;34.63;100598.69;5014629;28;47957;-68
2022/03/29 06:33:02;;;;;;;;;34.33;24.33;;;;;16.11;34.74;100597.03;5016280;28;45249;-65
2022/03/29 06:35:28;;;;;;;;;27.33;24.33;;;;;16.02;34.99;100566.78;5016659;28;45518;-66
2022/03/29 06:37:56;;;;;;;;;28.00;24.67;;;;;16.12;35.16;100587.97;5016897;28;45557;-68
2022/03/29 06:40:23;;;;;;;;;32.00;26.33;;;;;16.20;34.69;100592.41;5016193;28;46663;-66
2022/03/29 06:42:49;;;;;;;;;32.00;26.00;;;;;16.21;34.66;100580.66;5015110;28;46176;-67
2022/03/29 06:45:15;;;;;;;;;34.67;26.33;;;;;16.28;35.05;100603.06;5015453;28;46201;-69
2022/03/29 06:47:41;;;;;;;;;27.67;24.00;;;;;16.33;35.30;100598.78;5016568;28;45181;-66
2022/03/29 06:50:08;;;;;;;;;26.33;24.67;;;;;16.41;34.87;100584.44;5009977;28;46931;-68
2022/03/29 06:52:39;;;;;;;;;31.00;25.67;;;;;16.38;34.86;100593.69;5013937;28;45542;-65
2022/03/29 06:55:06;;;;;;;;;29.33;24.67;;;;;16.38;34.67;100587.50;5013223;28;45598;-67
2022/03/29 06:57:32;;;;;;;;;28.33;26.67;;;;;16.40;35.03;100585.47;5012854;28;45716;-66
2022/03/29 06:59:57;;;;;;;;;37.67;32.67;;;;;16.44;35.06;100576.06;5014210;28;47573;-65
2022/03/29 07:02:24;;;;;;;;;24.67;23.00;;;;;16.10;35.02;100526.47;5012687;28;46293;-67
2022/03/29 07:04:50;;;;;;;;;29.33;25.00;;;;;16.33;35.14;100563.91;5012640;28;45598;-64
2022/03/29 07:07:16;;;;;;;;;28.33;25.00;;;;;16.31;35.49;100557.06;5013542;28;45427;-66
2022/03/29 07:12:26;;;;;;;;;30.67;24.33;;;;;16.18;36.21;100554.19;5015844;28;45281;-67
2022/03/29 07:14:51;;;;;;;;;35.33;27.67;;;;;16.36;35.98;100565.41;5014421;28;45563;-66
2022/03/29 07:17:18;;;;;;;;;21.33;19.33;;;;;16.46;35.78;100565.13;5015962;28;45360;-67
2022/03/29 07:19:44;;;;;;;;;32.33;24.67;;;;;16.64;35.63;100576.31;5015468;28;45746;-67
2022/03/29 07:22:09;;;;;;;;;30.67;25.33;;;;;16.69;35.63;100564.00;5014538;28;45286;-69
2022/03/29 07:24:35;;;;;;;;;25.00;22.67;;;;;16.86;35.79;100561.09;5015799;28;45418;-69
2022/03/29 07:27:00;;;;;;;;;18.67;17.00;;;;;16.91;35.20;100556.81;5016516;28;45249;-69
2022/03/29 07:29:26;;;;;;;;;26.00;22.67;;;;;16.97;34.74;100569.47;5015848;28;46349;-66
2022/03/29 07:31:52;;;;;;;;;33.00;28.33;;;;;16.90;35.08;100562.38;5012399;28;46203;-70
2022/03/29 07:34:18;;;;;;;;;32.00;28.00;;;;;16.87;34.80;100565.47;5015696;28;45492;-67
2022/03/29 07:36:44;;;;;;;;;34.33;28.67;;;;;16.55;35.28;100524.56;5014979;28;45445;-68
2022/03/29 07:39:10;;;;;;;;;28.67;27.33;;;;;16.69;34.99;100553.28;5014636;28;47385;-66
2022/03/29 07:41:35;;;;;;;;;33.67;27.33;;;;;16.82;34.78;100562.47;5010578;28;45425;-67
2022/03/29 07:44:02;;;;;;;;;28.67;25.67;;;;;16.60;34.62;100506.03;5013344;28;45368;-67
2022/03/29 07:46:27;;;;;;;;;29.67;26.67;;;;;16.86;34.14;100536.94;5015096;28;45336;-67
2022/03/29 07:48:53;;;;;;;;;23.00;12.33;;;;;16.98;33.96;100560.41;5010111;28;45591;-66
2022/03/29 07:51:18;;;;;;;;;33.67;28.00;;;;;16.99;33.98;100553.19;5014413;28;45399;-67
2022/03/29 07:53:45;;;;;;;;;39.33;28.67;;;;;17.03;33.97;100552.63;5011375;28;45427;-66
2022/03/29 07:56:11;;;;;;;;;36.00;29.00;;;;;16.67;33.79;100495.44;5014469;28;45437;-66
2022/03/29 07:58:37;;;;;;;;;25.67;22.33;;;;;16.62;33.59;100493.28;5015293;28;46548;-68
2022/03/29 08:01:02;;;;;;;;;32.33;29.33;;;;;16.60;33.62;100503.34;5015473;28;45601;-66
2022/03/29 08:03:32;;;;;;;;;35.00;30.67;;;;;16.91;33.71;100537.19;5014867;28;45475;-65
2022/03/29 08:05:59;;;;;;;;;25.33;24.33;;;;;16.85;33.57;100520.00;5018062;28;45597;-66
2022/03/29 08:08:29;;;;;;;;;42.00;31.33;;;;;16.92;33.63;100525.44;5018526;28;45613;-78
2022/03/29 08:10:54;;;;;;;;;30.67;27.00;;;;;16.32;33.52;100411.19;5016774;28;45547;-67
2022/03/29 08:13:21;;;;;;;;;32.67;27.00;;;;;17.18;33.27;100533.75;5018857;28;45498;-66
2022/03/29 08:15:58;;;;;;;;;40.00;27.67;;;;;17.22;33.39;100527.00;5018740;28;45486;-67
2022/03/29 08:18:24;;;;;;;;;33.33;29.67;;;;;17.23;33.24;100512.53;5018248;28;47560;-65
2022/03/29 08:20:49;;;;;;;;;37.33;25.00;;;;;17.46;33.06;100523.06;5018135;28;45222;-65
2022/03/29 08:23:15;;;;;;;;;33.00;30.00;;;;;17.67;33.06;100519.50;5017381;28;45320;-66
2022/03/29 08:25:42;;;;;;;;;31.67;27.00;;;;;17.85;32.64;100521.72;5018116;28;45367;-65
2022/03/29 08:28:08;;;;;;;;;41.33;33.00;;;;;18.02;32.41;100516.84;5018179;28;47022;-65
2022/03/29 08:30:39;;;;;;;;;35.67;27.00;;;;;18.09;32.48;100502.41;5018631;28;45684;-67
2022/03/29 08:33:08;;;;;;;;;39.67;33.00;;;;;18.09;32.30;100480.06;5014358;28;45290;-68
2022/03/29 08:35:39;;;;;;;;;18.00;15.00;;;;;18.24;33.07;100502.28;5018680;28;45480;-67
2022/03/29 08:38:05;;;;;;;;;38.33;31.67;;;;;18.48;33.24;100504.47;5017943;28;46028;-66
2022/03/29 08:40:32;;;;;;;;;33.33;28.00;;;;;18.42;33.87;100501.72;5013529;28;45270;-65
2022/03/29 08:43:00;;;;;;;;;38.33;32.67;;;;;18.44;33.54;100486.22;5015715;28;45605;-67
2022/03/29 08:45:31;;;;;;;;;38.67;32.67;;;;;18.63;33.76;100476.59;5017694;28;45545;-68
2022/03/29 08:47:59;;;;;;;;;32.00;29.67;;;;;18.97;33.26;100495.28;5000615;28;47618;-65
2022/03/29 08:50:29;;;;;;;;;38.00;33.00;;;;;19.14;32.48;100488.47;5017887;28;45670;-67
2022/03/29 08:52:55;;;;;;;;;29.00;24.33;;;;;19.34;32.31;100490.34;5017291;28;45459;-67
2022/03/29 08:55:23;;;;;;;;;39.33;30.67;;;;;19.76;31.87;100486.41;5018513;28;45474;-66
2022/03/29 08:58:03;;;;;;;;;35.00;28.33;;;;;20.30;30.90;100480.66;5018362;28;45645;-67
2022/03/29 09:00:41;;;;;;;;;42.33;31.67;;;;;20.55;29.75;100442.13;5010757;28;45288;-67
2022/03/29 09:03:07;;;;;;;;;40.67;34.00;;;;;21.01;29.27;100446.41;5017548;28;45574;-65
2022/03/29 09:05:33;;;;;;;;;38.33;34.00;;;;;21.19;28.77;100449.16;5018450;28;45593;-66
2022/03/29 09:08:04;;;;;;;;;37.33;32.33;;;;;21.20;28.30;100431.91;5016946;28;45513;-69
2022/03/29 09:10:42;;;;;;;;;32.67;26.67;;;;;21.47;28.15;100468.53;5002244;28;45631;-68
2022/03/29 09:13:23;;;;;;;;;34.33;29.33;;;;;21.34;28.81;100460.53;5016057;28;45397;-74
2022/03/29 09:15:51;;;;;;;;;37.00;32.00;;;;;21.22;28.69;100451.41;5015763;28;45546;-66
2022/03/29 09:18:17;;;;;;;;;40.00;33.67;;;;;21.06;28.81;100454.69;5015024;28;47780;-67
2022/03/29 09:20:44;;;;;;;;;38.33;32.33;;;;;20.39;28.89;100342.69;5018069;28;45438;-66
2022/03/29 09:23:17;;;;;;;;;32.67;30.33;;;;;21.39;28.70;100452.56;5017254;28;45328;-66
2022/03/29 09:25:47;;;;;;;;;43.00;32.67;;;;;21.40;28.75;100437.16;5010401;28;45531;-67
2022/03/29 09:28:15;;;;;;;;;32.33;31.33;;;;;21.22;28.79;100438.75;5015938;28;46950;-67
2022/03/29 09:30:49;;;;;;;;;48.00;34.00;;;;;21.42;29.05;100454.81;4993607;28;45413;-66
2022/03/29 09:33:28;;;;;;;;;34.33;30.00;;;;;21.31;28.93;100433.09;4997704;28;45458;-66
2022/03/29 09:36:10;;;;;;;;;35.33;33.00;;;;;21.49;28.80;100452.06;4996704;28;45495;-67
2022/03/29 09:38:41;;;;;;;;;35.33;32.00;;;;;21.64;28.34;100449.03;4997390;28;45461;-67
2022/03/29 09:41:32;;;;;;;;;42.67;33.00;;;;;21.83;28.53;100456.09;4997706;28;45384;-66
2022/03/29 09:44:19;;;;;;;;;42.33;33.67;;;;;21.85;28.28;100402.56;4991004;28;45284;-68
2022/03/29 09:47:04;;;;;;;;;36.67;30.67;;;;;22.29;27.17;100454.75;4995230;28;46153;-66
2022/03/29 09:49:30;;;;;;;;;28.00;22.67;;;;;22.43;27.63;100407.50;4996394;28;46759;-73
2022/03/29 09:52:09;;;;;;;;;39.33;34.33;;;;;23.24;27.19;100444.84;4995968;28;45438;-67
2022/03/29 09:54:36;;;;;;;;;46.67;35.00;;;;;23.48;26.46;100412.28;4996372;28;45502;-66
2022/03/29 09:57:02;;;;;;;;;47.33;36.00;;;;;23.11;26.73;100417.09;5003015;28;45261;-69
2022/03/29 09:59:27;;;;;;;;;38.00;34.33;;;;;23.28;26.56;100435.16;4997251;28;46290;-70
2022/03/29 10:01:56;;;;;;;;;46.00;35.67;;;;;23.37;26.68;100432.91;4997487;28;45477;-69
2022/03/29 10:04:29;;;;;;;;;51.33;38.00;;;;;23.40;26.85;100416.16;4998100;28;45221;-71
2022/03/29 10:06:57;;;;;;;;;44.67;35.00;;;;;23.41;26.64;100389.84;4995472;28;45444;-71
2022/03/29 10:09:32;;;;;;;;;41.67;36.33;;;;;23.63;26.60;100423.53;4995946;28;47052;-67
2022/03/29 10:12:06;;;;;;;;;38.67;35.00;;;;;23.18;26.79;100410.50;4996269;28;45406;-68
2022/03/29 10:14:36;;;;;;;;;42.33;34.00;;;;;23.02;26.94;100412.00;4996152;28;45313;-68
2022/03/29 10:17:06;;;;;;;;;42.67;34.00;;;;;23.09;27.05;100414.63;4996317;28;45566;-68
2022/03/29 10:19:33;;;;;;;;;51.67;38.67;;;;;22.97;27.02;100384.78;4995810;28;45515;-67
2022/03/29 10:22:01;;;;;;;;;43.67;35.00;;;;;23.16;27.09;100412.63;4996144;28;45190;-68
2022/03/29 10:24:28;;;;;;;;;44.33;36.00;;;;;22.84;26.75;100362.50;4997359;28;45512;-68
2022/03/29 10:27:02;;;;;;;;;37.33;31.33;;;;;22.89;27.40;100406.81;4996864;28;45567;-66
2022/03/29 10:29:28;;;;;;;;;43.67;35.00;;;;;22.39;27.23;100347.50;4996626;28;46627;-67
2022/03/29 10:31:56;;;;;;;;;35.67;30.67;;;;;22.45;27.50;100397.25;5016358;28;45467;-68
2022/03/29 10:34:27;;;;;;;;;46.00;35.00;;;;;22.57;27.65;100399.97;5016700;28;45518;-69
2022/03/29 10:37:09;;;;;;;;;43.00;35.67;;;;;22.27;28.12;100390.00;5016463;28;45240;-68
2022/03/29 10:39:55;;;;;;;;;48.00;36.33;;;;;22.10;28.14;100392.50;5008272;28;46349;-68
2022/03/29 10:42:38;;;;;;;;;45.67;38.67;;;;;22.24;28.31;100395.03;5014495;28;45291;-68
2022/03/29 10:45:06;;;;;;;;;46.00;37.67;;;;;22.38;28.03;100386.50;5016206;28;45303;-69
2022/03/29 10:47:33;;;;;;;;;41.33;33.00;;;;;22.47;27.79;100384.28;5016397;28;45257;-67
2022/03/29 10:50:00;;;;;;;;;46.00;38.33;;;;;22.26;27.55;100346.91;5011475;28;47752;-67
2022/03/29 10:52:25;;;;;;;;;48.00;37.67;;;;;22.43;27.23;100383.94;5014656;28;45511;-66
2022/03/29 10:55:11;;;;;;;;;47.33;33.33;;;;;22.30;27.64;100369.75;5016348;28;45415;-67
2022/03/29 10:57:37;;;;;;;;;44.00;35.67;;;;;22.13;27.20;100305.41;5016085;28;45495;-68
2022/03/29 11:00:10;;;;;;;;;44.50;36.00;;;;;22.49;27.45;100373.22;5015526;28;45757;-66
2022/03/29 11:02:36;;;;;;;;;37.00;32.00;;;;;22.51;26.92;100368.41;5015681;28;45533;-68
2022/03/29 11:05:06;;;;;;;;;44.00;35.67;;;;;22.41;26.87;100360.81;5016147;28;45447;-68
2022/03/29 11:07:36;;;;;;;;;40.00;34.33;;;;;22.13;27.11;100366.84;5015584;28;45621;-67
2022/03/29 11:10:18;;;;;;;;;39.33;33.33;;;;;22.16;27.29;100358.25;5016081;28;45747;-68
2022/03/29 11:12:56;;;;;;;;;40.67;35.67;;;;;21.82;27.57;100292.91;5015884;28;45579;-67
2022/03/29 11:15:25;;;;;;;;;29.33;27.67;;;;;22.40;27.69;100362.69;5015624;28;45389;-66
2022/03/29 11:17:55;;;;;;;;;46.67;34.33;;;;;22.51;27.46;100362.97;5016043;28;45340;-67